sensor_id;sensor_type;location;lat;lon;timestamp;P1;durP1;ratioP1;P2;durP2;ratioP2
37847;SDS011;23688;33.130;-117.188;2022-11-24T00:01:12;8.95;;;1.70;;
37847;SDS011;23688;33.130;-117.188;2022-11-24T00:03:41;3.83;;;1.95;;
37847;SDS011;23688;33.130;-117.188;2022-11-24T00:06:12;6.05;;;1.30;;
37847;SDS011;23688;33.130;-117.188;2022-11-24T00:08:41;4.28;;;1.50;;
37847;SDS011;23688;33.130;-117.188;2022-11-24T00:11:11;7.95;;;1.65;;
37847;SDS011;23688;33.130;-117.188;2022-11-24T00:13:40;3.60;;;1.55;;
37847;SDS011;23688;33.130;-117.188;2022-11-24T00:16:08;8.88;;;2.00;;
37847;SDS011;23688;33.130;-117.188;2022-11-24T00:18:46;3.25;;;2.08;;
37847;SDS011;23688;33.130;-117.188;2022-11-24T00:21:19;8.07;;;1.70;;
37847;SDS011;23688;33.130;-117.188;2022-11-24T00:23:46;4.30;;;1.77;;
37847;SDS011;23688;33.130;-117.188;2022-11-24T00:26:19;14.75;;;2.47;;
37847;SDS011;23688;33.130;-117.188;2022-11-24T00:28:54;7.68;;;1.55;;
37847;SDS011;23688;33.130;-117.188;2022-11-24T00:31:26;2.78;;;1.33;;
37847;SDS011;23688;33.130;-117.188;2022-11-24T00:33:58;2.15;;;1.77;;
37847;SDS011;23688;33.130;-117.188;2022-11-24T00:36:27;9.68;;;2.65;;
37847;SDS011;23688;33.130;-117.188;2022-11-24T00:38:58;10.27;;;3.05;;
37847;SDS011;23688;33.130;-117.188;2022-11-24T00:41:26;5.68;;;2.40;;
37847;SDS011;23688;33.130;-117.188;2022-11-24T00:43:53;12.48;;;2.40;;
37847;SDS011;23688;33.130;-117.188;2022-11-24T00:46:20;5.20;;;2.78;;
37847;SDS011;23688;33.130;-117.188;2022-11-24T00:48:47;5.97;;;2.92;;
37847;SDS011;23688;33.130;-117.188;2022-11-24T00:51:14;3.13;;;2.30;;
37847;SDS011;23688;33.130;-117.188;2022-11-24T00:53:41;10.30;;;4.27;;
37847;SDS011;23688;33.130;-117.188;2022-11-24T00:56:08;110.10;;;63.40;;
37847;SDS011;23688;33.130;-117.188;2022-11-24T00:58:35;109.97;;;63.83;;
37847;SDS011;23688;33.130;-117.188;2022-11-24T01:01:03;75.28;;;49.50;;
37847;SDS011;23688;33.130;-117.188;2022-11-24T01:03:40;13.13;;;3.53;;
37847;SDS011;23688;33.130;-117.188;2022-11-24T01:06:26;8.02;;;3.83;;
37847;SDS011;23688;33.130;-117.188;2022-11-24T01:08:54;5.10;;;2.70;;
37847;SDS011;23688;33.130;-117.188;2022-11-24T01:11:26;7.72;;;2.60;;
37847;SDS011;23688;33.130;-117.188;2022-11-24T01:14:18;5.28;;;3.05;;
37847;SDS011;23688;33.130;-117.188;2022-11-24T01:16:45;9.73;;;3.10;;
37847;SDS011;23688;33.130;-117.188;2022-11-24T01:19:12;6.07;;;2.33;;
37847;SDS011;23688;33.130;-117.188;2022-11-24T01:21:38;10.20;;;2.85;;
37847;SDS011;23688;33.130;-117.188;2022-11-24T01:24:05;10.48;;;2.20;;
37847;SDS011;23688;33.130;-117.188;2022-11-24T01:26:32;8.82;;;2.10;;
37847;SDS011;23688;33.130;-117.188;2022-11-24T01:28:58;5.75;;;2.13;;
37847;SDS011;23688;33.130;-117.188;2022-11-24T01:31:24;8.60;;;1.70;;
37847;SDS011;23688;33.130;-117.188;2022-11-24T01:33:51;3.08;;;1.70;;
37847;SDS011;23688;33.130;-117.188;2022-11-24T01:36:19;5.53;;;2.15;;
37847;SDS011;23688;33.130;-117.188;2022-11-24T01:38:45;5.55;;;2.60;;
37847;SDS011;23688;33.130;-117.188;2022-11-24T01:41:12;5.35;;;2.15;;
37847;SDS011;23688;33.130;-117.188;2022-11-24T01:43:41;23.88;;;3.60;;
37847;SDS011;23688;33.130;-117.188;2022-11-24T01:51:40;4.93;;;2.22;;
37847;SDS011;23688;33.130;-117.188;2022-11-24T01:54:19;2.67;;;1.92;;
37847;SDS011;23688;33.130;-117.188;2022-11-24T01:56:50;11.63;;;3.03;;
37847;SDS011;23688;33.130;-117.188;2022-11-24T01:59:22;17.25;;;6.38;;
37847;SDS011;23688;33.130;-117.188;2022-11-24T02:01:50;8.00;;;5.83;;
37847;SDS011;23688;33.130;-117.188;2022-11-24T02:04:18;6.25;;;3.25;;
37847;SDS011;23688;33.130;-117.188;2022-11-24T02:06:48;7.78;;;2.40;;
37847;SDS011;23688;33.130;-117.188;2022-11-24T02:09:50;11.55;;;3.15;;
37847;SDS011;23688;33.130;-117.188;2022-11-24T02:12:24;8.82;;;4.15;;
37847;SDS011;23688;33.130;-117.188;2022-11-24T02:14:52;9.63;;;5.47;;
37847;SDS011;23688;33.130;-117.188;2022-11-24T02:17:19;23.38;;;10.90;;
37847;SDS011;23688;33.130;-117.188;2022-11-24T02:19:56;6.35;;;2.38;;
37847;SDS011;23688;33.130;-117.188;2022-11-24T02:27:42;5.43;;;3.10;;
37847;SDS011;23688;33.130;-117.188;2022-11-24T02:30:10;7.38;;;4.00;;
37847;SDS011;23688;33.130;-117.188;2022-11-24T02:32:39;6.40;;;3.15;;
37847;SDS011;23688;33.130;-117.188;2022-11-24T02:35:07;7.28;;;3.47;;
37847;SDS011;23688;33.130;-117.188;2022-11-24T02:37:35;38.50;;;19.33;;
37847;SDS011;23688;33.130;-117.188;2022-11-24T02:40:01;61.60;;;27.48;;
37847;SDS011;23688;33.130;-117.188;2022-11-24T02:42:29;15.15;;;5.22;;
37847;SDS011;23688;33.130;-117.188;2022-11-24T02:45:00;8.95;;;4.25;;
37847;SDS011;23688;33.130;-117.188;2022-11-24T02:47:27;10.38;;;4.03;;
37847;SDS011;23688;33.130;-117.188;2022-11-24T02:49:53;7.18;;;4.40;;
37847;SDS011;23688;33.130;-117.188;2022-11-24T02:52:19;9.02;;;3.60;;
37847;SDS011;23688;33.130;-117.188;2022-11-24T02:54:46;16.25;;;6.82;;
37847;SDS011;23688;33.130;-117.188;2022-11-24T02:57:12;37.28;;;20.60;;
37847;SDS011;23688;33.130;-117.188;2022-11-24T02:59:39;28.58;;;15.88;;
37847;SDS011;23688;33.130;-117.188;2022-11-24T03:02:05;22.65;;;11.23;;
37847;SDS011;23688;33.130;-117.188;2022-11-24T03:04:32;17.08;;;6.60;;
37847;SDS011;23688;33.130;-117.188;2022-11-24T03:06:58;17.13;;;7.20;;
37847;SDS011;23688;33.130;-117.188;2022-11-24T03:09:24;14.52;;;5.53;;
37847;SDS011;23688;33.130;-117.188;2022-11-24T03:11:50;19.02;;;7.53;;
37847;SDS011;23688;33.130;-117.188;2022-11-24T03:14:17;20.13;;;8.00;;
37847;SDS011;23688;33.130;-117.188;2022-11-24T03:16:43;17.75;;;7.65;;
37847;SDS011;23688;33.130;-117.188;2022-11-24T03:19:09;17.88;;;8.25;;
37847;SDS011;23688;33.130;-117.188;2022-11-24T03:21:36;31.23;;;12.57;;
37847;SDS011;23688;33.130;-117.188;2022-11-24T03:24:02;28.67;;;8.77;;
37847;SDS011;23688;33.130;-117.188;2022-11-24T03:26:28;12.48;;;5.82;;
37847;SDS011;23688;33.130;-117.188;2022-11-24T03:28:55;20.38;;;5.60;;
37847;SDS011;23688;33.130;-117.188;2022-11-24T03:31:24;11.43;;;5.15;;
37847;SDS011;23688;33.130;-117.188;2022-11-24T03:33:50;22.15;;;9.48;;
37847;SDS011;23688;33.130;-117.188;2022-11-24T03:36:17;22.90;;;12.43;;
37847;SDS011;23688;33.130;-117.188;2022-11-24T03:38:43;16.00;;;8.23;;
37847;SDS011;23688;33.130;-117.188;2022-11-24T03:41:10;15.73;;;6.05;;
37847;SDS011;23688;33.130;-117.188;2022-11-24T03:43:36;15.30;;;7.78;;
37847;SDS011;23688;33.130;-117.188;2022-11-24T03:46:02;36.70;;;7.38;;
37847;SDS011;23688;33.130;-117.188;2022-11-24T03:48:29;13.18;;;6.75;;
37847;SDS011;23688;33.130;-117.188;2022-11-24T03:50:56;14.68;;;6.60;;
37847;SDS011;23688;33.130;-117.188;2022-11-24T03:53:26;28.42;;;10.73;;
37847;SDS011;23688;33.130;-117.188;2022-11-24T03:58:21;21.48;;;11.30;;
37847;SDS011;23688;33.130;-117.188;2022-11-24T04:00:48;29.02;;;14.80;;
37847;SDS011;23688;33.130;-117.188;2022-11-24T04:03:15;28.40;;;13.85;;
37847;SDS011;23688;33.130;-117.188;2022-11-24T04:05:42;23.42;;;12.32;;
37847;SDS011;23688;33.130;-117.188;2022-11-24T04:08:08;19.23;;;10.00;;
37847;SDS011;23688;33.130;-117.188;2022-11-24T04:10:36;24.35;;;9.60;;
37847;SDS011;23688;33.130;-117.188;2022-11-24T04:13:10;22.10;;;10.85;;
37847;SDS011;23688;33.130;-117.188;2022-11-24T04:15:38;20.00;;;8.32;;
37847;SDS011;23688;33.130;-117.188;2022-11-24T04:18:05;14.07;;;6.72;;
37847;SDS011;23688;33.130;-117.188;2022-11-24T04:20:32;11.57;;;5.13;;
37847;SDS011;23688;33.130;-117.188;2022-11-24T04:23:00;10.25;;;4.78;;
37847;SDS011;23688;33.130;-117.188;2022-11-24T04:25:27;7.13;;;3.65;;
37847;SDS011;23688;33.130;-117.188;2022-11-24T04:27:54;9.93;;;3.55;;
37847;SDS011;23688;33.130;-117.188;2022-11-24T04:30:22;9.20;;;4.07;;
37847;SDS011;23688;33.130;-117.188;2022-11-24T04:32:50;7.05;;;3.17;;
37847;SDS011;23688;33.130;-117.188;2022-11-24T04:35:16;6.88;;;3.22;;
37847;SDS011;23688;33.130;-117.188;2022-11-24T04:37:45;13.88;;;6.43;;
37847;SDS011;23688;33.130;-117.188;2022-11-24T04:40:12;13.68;;;6.63;;
37847;SDS011;23688;33.130;-117.188;2022-11-24T04:42:38;18.92;;;6.75;;
37847;SDS011;23688;33.130;-117.188;2022-11-24T04:45:05;11.18;;;5.22;;
37847;SDS011;23688;33.130;-117.188;2022-11-24T04:47:32;6.43;;;4.20;;
37847;SDS011;23688;33.130;-117.188;2022-11-24T04:49:59;14.07;;;4.10;;
37847;SDS011;23688;33.130;-117.188;2022-11-24T04:52:25;7.63;;;4.20;;
37847;SDS011;23688;33.130;-117.188;2022-11-24T04:54:54;11.05;;;5.45;;
37847;SDS011;23688;33.130;-117.188;2022-11-24T04:57:22;8.57;;;3.45;;
37847;SDS011;23688;33.130;-117.188;2022-11-24T04:59:50;10.38;;;4.13;;
37847;SDS011;23688;33.130;-117.188;2022-11-24T05:02:17;13.10;;;5.47;;
37847;SDS011;23688;33.130;-117.188;2022-11-24T05:04:44;15.43;;;6.82;;
37847;SDS011;23688;33.130;-117.188;2022-11-24T05:07:14;19.10;;;7.43;;
37847;SDS011;23688;33.130;-117.188;2022-11-24T05:09:41;17.00;;;6.82;;
37847;SDS011;23688;33.130;-117.188;2022-11-24T05:12:26;10.20;;;6.07;;
37847;SDS011;23688;33.130;-117.188;2022-11-24T05:14:58;14.88;;;6.95;;
37847;SDS011;23688;33.130;-117.188;2022-11-24T05:17:29;24.58;;;7.78;;
37847;SDS011;23688;33.130;-117.188;2022-11-24T05:19:57;18.08;;;8.40;;
37847;SDS011;23688;33.130;-117.188;2022-11-24T05:22:24;11.15;;;5.43;;
37847;SDS011;23688;33.130;-117.188;2022-11-24T05:24:52;14.13;;;6.60;;
37847;SDS011;23688;33.130;-117.188;2022-11-24T05:27:19;15.68;;;5.97;;
37847;SDS011;23688;33.130;-117.188;2022-11-24T05:29:47;11.63;;;5.70;;
37847;SDS011;23688;33.130;-117.188;2022-11-24T05:32:13;12.82;;;4.97;;
37847;SDS011;23688;33.130;-117.188;2022-11-24T05:34:40;9.52;;;5.07;;
37847;SDS011;23688;33.130;-117.188;2022-11-24T05:37:06;13.07;;;6.22;;
37847;SDS011;23688;33.130;-117.188;2022-11-24T05:39:33;12.85;;;6.13;;
37847;SDS011;23688;33.130;-117.188;2022-11-24T05:42:00;14.57;;;7.10;;
37847;SDS011;23688;33.130;-117.188;2022-11-24T05:44:48;15.88;;;6.95;;
37847;SDS011;23688;33.130;-117.188;2022-11-24T05:47:15;15.77;;;6.38;;
37847;SDS011;23688;33.130;-117.188;2022-11-24T05:49:42;11.95;;;5.65;;
37847;SDS011;23688;33.130;-117.188;2022-11-24T05:52:08;15.98;;;7.30;;
37847;SDS011;23688;33.130;-117.188;2022-11-24T05:54:35;10.00;;;4.93;;
37847;SDS011;23688;33.130;-117.188;2022-11-24T05:57:01;10.32;;;5.50;;
37847;SDS011;23688;33.130;-117.188;2022-11-24T05:59:28;11.43;;;5.47;;
37847;SDS011;23688;33.130;-117.188;2022-11-24T06:01:54;10.27;;;4.70;;
37847;SDS011;23688;33.130;-117.188;2022-11-24T06:04:20;12.68;;;5.97;;
37847;SDS011;23688;33.130;-117.188;2022-11-24T06:06:47;12.98;;;6.15;;
37847;SDS011;23688;33.130;-117.188;2022-11-24T06:09:13;18.73;;;6.05;;
37847;SDS011;23688;33.130;-117.188;2022-11-24T06:11:39;14.60;;;6.20;;
37847;SDS011;23688;33.130;-117.188;2022-11-24T06:14:05;23.92;;;7.18;;
37847;SDS011;23688;33.130;-117.188;2022-11-24T06:16:31;11.25;;;5.78;;
37847;SDS011;23688;33.130;-117.188;2022-11-24T06:18:58;13.43;;;6.55;;
37847;SDS011;23688;33.130;-117.188;2022-11-24T06:21:24;13.70;;;6.72;;
37847;SDS011;23688;33.130;-117.188;2022-11-24T06:23:51;22.63;;;7.95;;
37847;SDS011;23688;33.130;-117.188;2022-11-24T06:26:17;14.85;;;7.10;;
37847;SDS011;23688;33.130;-117.188;2022-11-24T06:28:43;12.55;;;6.85;;
37847;SDS011;23688;33.130;-117.188;2022-11-24T06:31:10;11.85;;;7.18;;
37847;SDS011;23688;33.130;-117.188;2022-11-24T06:33:36;18.30;;;8.55;;
37847;SDS011;23688;33.130;-117.188;2022-11-24T06:36:06;19.95;;;8.07;;
37847;SDS011;23688;33.130;-117.188;2022-11-24T06:38:36;18.52;;;7.55;;
37847;SDS011;23688;33.130;-117.188;2022-11-24T06:41:04;22.52;;;7.70;;
37847;SDS011;23688;33.130;-117.188;2022-11-24T06:43:36;15.80;;;7.18;;
37847;SDS011;23688;33.130;-117.188;2022-11-24T06:46:02;20.45;;;7.90;;
37847;SDS011;23688;33.130;-117.188;2022-11-24T06:48:29;13.30;;;7.63;;
37847;SDS011;23688;33.130;-117.188;2022-11-24T06:51:03;16.75;;;6.53;;
37847;SDS011;23688;33.130;-117.188;2022-11-24T06:53:31;16.63;;;5.82;;
37847;SDS011;23688;33.130;-117.188;2022-11-24T06:56:03;19.48;;;6.63;;
37847;SDS011;23688;33.130;-117.188;2022-11-24T06:58:34;13.23;;;6.78;;
37847;SDS011;23688;33.130;-117.188;2022-11-24T07:01:05;18.10;;;6.57;;
37847;SDS011;23688;33.130;-117.188;2022-11-24T07:03:31;20.45;;;7.68;;
37847;SDS011;23688;33.130;-117.188;2022-11-24T07:05:57;11.75;;;5.93;;
37847;SDS011;23688;33.130;-117.188;2022-11-24T07:08:24;14.40;;;5.57;;
37847;SDS011;23688;33.130;-117.188;2022-11-24T07:10:51;15.23;;;5.40;;
37847;SDS011;23688;33.130;-117.188;2022-11-24T07:13:18;11.25;;;5.43;;
37847;SDS011;23688;33.130;-117.188;2022-11-24T07:15:45;12.13;;;5.43;;
37847;SDS011;23688;33.130;-117.188;2022-11-24T07:18:12;16.08;;;5.43;;
37847;SDS011;23688;33.130;-117.188;2022-11-24T07:20:38;22.17;;;6.63;;
37847;SDS011;23688;33.130;-117.188;2022-11-24T07:23:05;14.63;;;5.50;;
37847;SDS011;23688;33.130;-117.188;2022-11-24T07:25:31;15.95;;;6.25;;
37847;SDS011;23688;33.130;-117.188;2022-11-24T07:27:58;10.35;;;6.13;;
37847;SDS011;23688;33.130;-117.188;2022-11-24T07:30:25;11.10;;;5.75;;
37847;SDS011;23688;33.130;-117.188;2022-11-24T07:33:01;12.98;;;5.22;;
37847;SDS011;23688;33.130;-117.188;2022-11-24T07:35:28;11.43;;;5.65;;
37847;SDS011;23688;33.130;-117.188;2022-11-24T07:37:55;14.05;;;5.40;;
37847;SDS011;23688;33.130;-117.188;2022-11-24T07:40:23;15.18;;;5.47;;
37847;SDS011;23688;33.130;-117.188;2022-11-24T07:42:50;13.00;;;5.03;;
37847;SDS011;23688;33.130;-117.188;2022-11-24T07:45:17;18.25;;;6.93;;
37847;SDS011;23688;33.130;-117.188;2022-11-24T07:47:44;10.30;;;5.65;;
37847;SDS011;23688;33.130;-117.188;2022-11-24T07:50:10;9.18;;;5.50;;
37847;SDS011;23688;33.130;-117.188;2022-11-24T07:52:38;8.80;;;5.10;;
37847;SDS011;23688;33.130;-117.188;2022-11-24T07:55:04;11.07;;;5.22;;
37847;SDS011;23688;33.130;-117.188;2022-11-24T07:57:32;7.57;;;4.45;;
37847;SDS011;23688;33.130;-117.188;2022-11-24T07:59:58;19.13;;;6.78;;
37847;SDS011;23688;33.130;-117.188;2022-11-24T08:02:24;13.35;;;5.55;;
37847;SDS011;23688;33.130;-117.188;2022-11-24T08:04:50;28.33;;;5.65;;
37847;SDS011;23688;33.130;-117.188;2022-11-24T08:07:17;14.13;;;5.90;;
37847;SDS011;23688;33.130;-117.188;2022-11-24T08:09:43;18.77;;;6.38;;
37847;SDS011;23688;33.130;-117.188;2022-11-24T08:12:09;9.57;;;6.00;;
37847;SDS011;23688;33.130;-117.188;2022-11-24T08:14:35;14.93;;;5.88;;
37847;SDS011;23688;33.130;-117.188;2022-11-24T08:17:02;10.55;;;4.72;;
37847;SDS011;23688;33.130;-117.188;2022-11-24T08:19:28;9.27;;;4.70;;
37847;SDS011;23688;33.130;-117.188;2022-11-24T08:21:56;8.80;;;4.53;;
37847;SDS011;23688;33.130;-117.188;2022-11-24T08:24:22;14.80;;;5.40;;
37847;SDS011;23688;33.130;-117.188;2022-11-24T08:26:49;11.23;;;5.50;;
37847;SDS011;23688;33.130;-117.188;2022-11-24T08:29:15;11.90;;;5.55;;
37847;SDS011;23688;33.130;-117.188;2022-11-24T08:31:41;12.68;;;5.20;;
37847;SDS011;23688;33.130;-117.188;2022-11-24T08:34:08;11.90;;;5.18;;
37847;SDS011;23688;33.130;-117.188;2022-11-24T08:36:35;13.38;;;5.05;;
37847;SDS011;23688;33.130;-117.188;2022-11-24T08:39:01;10.93;;;5.13;;
37847;SDS011;23688;33.130;-117.188;2022-11-24T08:41:28;11.23;;;4.97;;
37847;SDS011;23688;33.130;-117.188;2022-11-24T08:43:55;7.65;;;4.85;;
37847;SDS011;23688;33.130;-117.188;2022-11-24T08:46:21;13.73;;;4.80;;
37847;SDS011;23688;33.130;-117.188;2022-11-24T08:48:49;10.52;;;4.50;;
37847;SDS011;23688;33.130;-117.188;2022-11-24T08:51:18;7.83;;;5.13;;
37847;SDS011;23688;33.130;-117.188;2022-11-24T08:53:46;10.80;;;5.15;;
37847;SDS011;23688;33.130;-117.188;2022-11-24T08:56:12;13.38;;;5.00;;
37847;SDS011;23688;33.130;-117.188;2022-11-24T08:58:39;10.85;;;5.95;;
37847;SDS011;23688;33.130;-117.188;2022-11-24T09:01:07;14.48;;;5.68;;
37847;SDS011;23688;33.130;-117.188;2022-11-24T09:03:39;11.60;;;5.85;;
37847;SDS011;23688;33.130;-117.188;2022-11-24T09:06:08;15.53;;;5.73;;
37847;SDS011;23688;33.130;-117.188;2022-11-24T09:08:35;12.47;;;6.03;;
37847;SDS011;23688;33.130;-117.188;2022-11-24T09:11:06;18.98;;;5.93;;
37847;SDS011;23688;33.130;-117.188;2022-11-24T09:13:35;16.52;;;6.45;;
37847;SDS011;23688;33.130;-117.188;2022-11-24T09:16:02;13.18;;;6.22;;
37847;SDS011;23688;33.130;-117.188;2022-11-24T09:18:31;13.18;;;5.45;;
37847;SDS011;23688;33.130;-117.188;2022-11-24T09:21:05;10.57;;;5.90;;
37847;SDS011;23688;33.130;-117.188;2022-11-24T09:23:38;14.50;;;6.25;;
37847;SDS011;23688;33.130;-117.188;2022-11-24T09:26:10;19.35;;;5.75;;
37847;SDS011;23688;33.130;-117.188;2022-11-24T09:28:40;13.57;;;6.88;;
37847;SDS011;23688;33.130;-117.188;2022-11-24T09:31:07;16.52;;;5.72;;
37847;SDS011;23688;33.130;-117.188;2022-11-24T09:33:36;10.70;;;6.15;;
37847;SDS011;23688;33.130;-117.188;2022-11-24T09:36:03;8.85;;;4.25;;
37847;SDS011;23688;33.130;-117.188;2022-11-24T09:38:30;10.90;;;4.60;;
37847;SDS011;23688;33.130;-117.188;2022-11-24T09:41:04;10.77;;;4.65;;
37847;SDS011;23688;33.130;-117.188;2022-11-24T09:49:14;13.40;;;4.53;;
37847;SDS011;23688;33.130;-117.188;2022-11-24T09:51:47;8.60;;;4.60;;
37847;SDS011;23688;33.130;-117.188;2022-11-24T09:54:21;8.38;;;3.90;;
37847;SDS011;23688;33.130;-117.188;2022-11-24T09:56:53;12.82;;;5.80;;
37847;SDS011;23688;33.130;-117.188;2022-11-24T09:59:23;10.10;;;4.95;;
37847;SDS011;23688;33.130;-117.188;2022-11-24T10:01:51;13.05;;;5.03;;
37847;SDS011;23688;33.130;-117.188;2022-11-24T10:14:55;12.35;;;4.28;;
37847;SDS011;23688;33.130;-117.188;2022-11-24T10:17:41;9.93;;;4.25;;
37847;SDS011;23688;33.130;-117.188;2022-11-24T10:26:38;8.35;;;3.38;;
37847;SDS011;23688;33.130;-117.188;2022-11-24T10:31:42;12.50;;;4.18;;
37847;SDS011;23688;33.130;-117.188;2022-11-24T10:34:16;10.15;;;4.13;;
37847;SDS011;23688;33.130;-117.188;2022-11-24T10:44:43;8.07;;;3.63;;
37847;SDS011;23688;33.130;-117.188;2022-11-24T10:47:18;8.02;;;4.35;;
37847;SDS011;23688;33.130;-117.188;2022-11-24T10:50:30;12.40;;;4.50;;
37847;SDS011;23688;33.130;-117.188;2022-11-24T10:53:14;9.73;;;3.70;;
37847;SDS011;23688;33.130;-117.188;2022-11-24T10:58:23;11.05;;;4.68;;
37847;SDS011;23688;33.130;-117.188;2022-11-24T11:00:56;7.97;;;3.85;;
37847;SDS011;23688;33.130;-117.188;2022-11-24T11:03:25;7.60;;;3.65;;
37847;SDS011;23688;33.130;-117.188;2022-11-24T11:06:13;5.72;;;3.70;;
37847;SDS011;23688;33.130;-117.188;2022-11-24T11:08:45;11.25;;;3.80;;
37847;SDS011;23688;33.130;-117.188;2022-11-24T11:11:21;8.73;;;3.70;;
37847;SDS011;23688;33.130;-117.188;2022-11-24T11:14:00;10.68;;;3.58;;
37847;SDS011;23688;33.130;-117.188;2022-11-24T11:16:41;9.30;;;2.67;;
37847;SDS011;23688;33.130;-117.188;2022-11-24T11:24:38;5.10;;;2.95;;
37847;SDS011;23688;33.130;-117.188;2022-11-24T11:27:16;6.60;;;2.55;;
37847;SDS011;23688;33.130;-117.188;2022-11-24T11:29:45;7.47;;;2.20;;
37847;SDS011;23688;33.130;-117.188;2022-11-24T11:32:22;4.28;;;2.17;;
37847;SDS011;23688;33.130;-117.188;2022-11-24T11:34:54;6.88;;;2.13;;
37847;SDS011;23688;33.130;-117.188;2022-11-24T11:37:26;11.70;;;3.30;;
37847;SDS011;23688;33.130;-117.188;2022-11-24T11:39:54;5.13;;;2.42;;
37847;SDS011;23688;33.130;-117.188;2022-11-24T11:42:29;12.63;;;3.30;;
37847;SDS011;23688;33.130;-117.188;2022-11-24T11:45:04;6.90;;;2.78;;
37847;SDS011;23688;33.130;-117.188;2022-11-24T11:53:15;6.65;;;2.40;;
37847;SDS011;23688;33.130;-117.188;2022-11-24T11:56:05;9.17;;;3.10;;
37847;SDS011;23688;33.130;-117.188;2022-11-24T11:58:55;6.65;;;2.65;;
37847;SDS011;23688;33.130;-117.188;2022-11-24T12:01:47;7.68;;;3.08;;
37847;SDS011;23688;33.130;-117.188;2022-11-24T12:13:22;5.93;;;2.78;;
37847;SDS011;23688;33.130;-117.188;2022-11-24T12:16:14;8.65;;;3.15;;
37847;SDS011;23688;33.130;-117.188;2022-11-24T12:24:36;8.02;;;3.05;;
37847;SDS011;23688;33.130;-117.188;2022-11-24T12:30:02;9.50;;;3.03;;
37847;SDS011;23688;33.130;-117.188;2022-11-24T12:32:41;5.85;;;2.78;;
37847;SDS011;23688;33.130;-117.188;2022-11-24T12:35:34;8.30;;;3.33;;
37847;SDS011;23688;33.130;-117.188;2022-11-24T12:41:06;6.13;;;2.72;;
37847;SDS011;23688;33.130;-117.188;2022-11-24T12:43:49;10.57;;;2.65;;
37847;SDS011;23688;33.130;-117.188;2022-11-24T12:51:45;6.38;;;2.72;;
37847;SDS011;23688;33.130;-117.188;2022-11-24T12:54:16;6.70;;;3.00;;
37847;SDS011;23688;33.130;-117.188;2022-11-24T12:56:51;7.30;;;3.00;;
37847;SDS011;23688;33.130;-117.188;2022-11-24T12:59:50;8.40;;;3.40;;
37847;SDS011;23688;33.130;-117.188;2022-11-24T13:07:58;4.18;;;2.58;;
37847;SDS011;23688;33.130;-117.188;2022-11-24T13:10:28;6.35;;;2.53;;
37847;SDS011;23688;33.130;-117.188;2022-11-24T13:15:31;5.35;;;2.55;;
37847;SDS011;23688;33.130;-117.188;2022-11-24T13:24:55;7.53;;;2.67;;
37847;SDS011;23688;33.130;-117.188;2022-11-24T13:29:51;7.35;;;2.35;;
37847;SDS011;23688;33.130;-117.188;2022-11-24T13:58:51;10.38;;;4.07;;
37847;SDS011;23688;33.130;-117.188;2022-11-24T14:01:27;5.25;;;3.22;;
37847;SDS011;23688;33.130;-117.188;2022-11-24T14:06:43;4.75;;;2.30;;
37847;SDS011;23688;33.130;-117.188;2022-11-24T14:12:03;6.40;;;3.08;;
37847;SDS011;23688;33.130;-117.188;2022-11-24T14:14:36;8.35;;;2.70;;
37847;SDS011;23688;33.130;-117.188;2022-11-24T14:17:13;6.95;;;2.63;;
37847;SDS011;23688;33.130;-117.188;2022-11-24T14:19:48;3.03;;;1.98;;
37847;SDS011;23688;33.130;-117.188;2022-11-24T14:22:18;6.65;;;2.55;;
37847;SDS011;23688;33.130;-117.188;2022-11-24T14:24:53;7.03;;;2.50;;
37847;SDS011;23688;33.130;-117.188;2022-11-24T14:27:28;5.97;;;2.58;;
37847;SDS011;23688;33.130;-117.188;2022-11-24T14:32:39;4.72;;;2.60;;
37847;SDS011;23688;33.130;-117.188;2022-11-24T14:37:51;9.52;;;3.13;;
37847;SDS011;23688;33.130;-117.188;2022-11-24T14:43:04;6.78;;;3.45;;
37847;SDS011;23688;33.130;-117.188;2022-11-24T14:48:26;5.97;;;2.42;;
37847;SDS011;23688;33.130;-117.188;2022-11-24T14:53:45;11.40;;;1.92;;
37847;SDS011;23688;33.130;-117.188;2022-11-24T14:56:37;5.78;;;2.42;;
37847;SDS011;23688;33.130;-117.188;2022-11-24T15:01:45;9.57;;;2.38;;
37847;SDS011;23688;33.130;-117.188;2022-11-24T15:04:24;6.35;;;2.42;;
37847;SDS011;23688;33.130;-117.188;2022-11-24T15:09:57;8.75;;;3.05;;
37847;SDS011;23688;33.130;-117.188;2022-11-24T15:12:27;4.10;;;2.75;;
37847;SDS011;23688;33.130;-117.188;2022-11-24T15:17:46;4.40;;;2.40;;
37847;SDS011;23688;33.130;-117.188;2022-11-24T15:20:33;8.43;;;3.35;;
37847;SDS011;23688;33.130;-117.188;2022-11-24T15:25:49;8.88;;;2.70;;
37847;SDS011;23688;33.130;-117.188;2022-11-24T15:28:38;6.57;;;2.53;;
37847;SDS011;23688;33.130;-117.188;2022-11-24T15:31:05;13.65;;;3.88;;
37847;SDS011;23688;33.130;-117.188;2022-11-24T15:33:35;11.07;;;3.15;;
37847;SDS011;23688;33.130;-117.188;2022-11-24T15:36:01;7.00;;;2.42;;
37847;SDS011;23688;33.130;-117.188;2022-11-24T15:38:28;11.68;;;3.30;;
37847;SDS011;23688;33.130;-117.188;2022-11-24T15:40:55;7.28;;;3.15;;
37847;SDS011;23688;33.130;-117.188;2022-11-24T15:43:28;6.82;;;2.72;;
37847;SDS011;23688;33.130;-117.188;2022-11-24T15:45:57;8.23;;;2.40;;
37847;SDS011;23688;33.130;-117.188;2022-11-24T15:48:24;4.68;;;2.03;;
37847;SDS011;23688;33.130;-117.188;2022-11-24T15:50:51;5.53;;;1.92;;
37847;SDS011;23688;33.130;-117.188;2022-11-24T15:55:54;2.45;;;1.05;;
37847;SDS011;23688;33.130;-117.188;2022-11-24T15:58:22;7.07;;;0.95;;
37847;SDS011;23688;33.130;-117.188;2022-11-24T16:00:48;4.30;;;1.27;;
37847;SDS011;23688;33.130;-117.188;2022-11-24T16:03:18;2.85;;;1.20;;
37847;SDS011;23688;33.130;-117.188;2022-11-24T16:05:45;3.30;;;1.00;;
37847;SDS011;23688;33.130;-117.188;2022-11-24T16:08:15;0.75;;;0.63;;
37847;SDS011;23688;33.130;-117.188;2022-11-24T16:10:42;5.43;;;0.98;;
37847;SDS011;23688;33.130;-117.188;2022-11-24T16:13:09;4.05;;;0.70;;
37847;SDS011;23688;33.130;-117.188;2022-11-24T16:15:36;2.90;;;1.00;;
37847;SDS011;23688;33.130;-117.188;2022-11-24T16:18:03;5.35;;;0.60;;
37847;SDS011;23688;33.130;-117.188;2022-11-24T16:20:33;9.63;;;0.95;;
37847;SDS011;23688;33.130;-117.188;2022-11-24T16:23:01;8.38;;;0.75;;
37847;SDS011;23688;33.130;-117.188;2022-11-24T16:25:28;7.75;;;1.13;;
37847;SDS011;23688;33.130;-117.188;2022-11-24T16:27:58;6.40;;;0.68;;
37847;SDS011;23688;33.130;-117.188;2022-11-24T16:30:24;10.45;;;0.95;;
37847;SDS011;23688;33.130;-117.188;2022-11-24T16:32:50;3.75;;;0.88;;
37847;SDS011;23688;33.130;-117.188;2022-11-24T16:35:16;5.50;;;1.75;;
37847;SDS011;23688;33.130;-117.188;2022-11-24T16:37:43;9.82;;;1.50;;
37847;SDS011;23688;33.130;-117.188;2022-11-24T16:40:09;5.97;;;1.48;;
37847;SDS011;23688;33.130;-117.188;2022-11-24T16:42:36;8.48;;;1.45;;
37847;SDS011;23688;33.130;-117.188;2022-11-24T16:45:03;6.95;;;1.85;;
37847;SDS011;23688;33.130;-117.188;2022-11-24T16:50:02;8.27;;;1.50;;
37847;SDS011;23688;33.130;-117.188;2022-11-24T16:52:29;8.13;;;1.17;;
37847;SDS011;23688;33.130;-117.188;2022-11-24T16:54:55;8.50;;;1.58;;
37847;SDS011;23688;33.130;-117.188;2022-11-24T16:57:22;1.92;;;0.90;;
37847;SDS011;23688;33.130;-117.188;2022-11-24T16:59:48;6.57;;;1.48;;
37847;SDS011;23688;33.130;-117.188;2022-11-24T17:02:14;3.60;;;0.82;;